Time;durP1;ratioP1;P1;durP2;ratioP2;P2;SDS_P1;SDS_P2;PMS_P1;PMS_P2;Temp;Humidity;BMP_temperature;BMP_pressure;BME280_temperature;BME280_humidity;BME280_pressure;Samples;Min_cycle;Max_cycle;Signal;HPM_P1;HPM_P2
2021/08/16 00:02:22;;;;;;;20.30;4.30;;;17.60;99.90;;;;;;8257471;28;20073;-72
2021/08/16 00:06:24;;;;;;;13.57;3.95;;;17.50;99.90;;;;;;8258948;28;20065;-72
2021/08/16 00:10:25;;;;;;;13.00;3.05;;;17.50;99.90;;;;;;8258202;28;20054;-72
2021/08/16 00:14:27;;;;;;;14.15;4.18;;;17.40;99.90;;;;;;8253500;28;20108;-72
2021/08/16 00:18:30;;;;;;;14.52;3.30;;;17.30;99.90;;;;;;8255578;28;20042;-73
2021/08/16 00:22:32;;;;;;;14.20;3.40;;;17.30;99.90;;;;;;8255462;28;20065;-72
2021/08/16 00:26:33;;;;;;;18.13;3.80;;;17.30;99.90;;;;;;8255763;28;20719;-72
2021/08/16 00:30:35;;;;;;;13.98;3.63;;;17.30;99.90;;;;;;8257508;28;20692;-72
2021/08/16 00:34:37;;;;;;;17.77;4.15;;;17.20;99.90;;;;;;8255482;28;20116;-74
2021/08/16 00:38:39;;;;;;;10.35;3.05;;;17.20;99.90;;;;;;8253813;28;20050;-71
2021/08/16 00:42:41;;;;;;;15.05;3.63;;;17.10;99.90;;;;;;8255934;28;20066;-72
2021/08/16 00:46:43;;;;;;;8.93;2.60;;;17.10;99.90;;;;;;8258460;28;20057;-72
2021/08/16 00:50:45;;;;;;;10.20;3.40;;;17.00;99.90;;;;;;8259192;28;20050;-72
2021/08/16 00:54:47;;;;;;;12.57;4.05;;;17.00;99.90;;;;;;8260450;28;20046;-72
2021/08/16 00:58:49;;;;;;;12.93;4.05;;;17.10;99.90;;;;;;8259629;28;20525;-72
2021/08/16 01:02:52;;;;;;;14.38;3.85;;;17.00;99.90;;;;;;8276417;28;20057;-72
2021/08/16 01:06:54;;;;;;;10.00;3.15;;;17.00;99.90;;;;;;8262938;28;20085;-72
2021/08/16 01:10:55;;;;;;;16.77;4.10;;;17.10;99.90;;;;;;8258486;28;20117;-72
2021/08/16 01:14:57;;;;;;;19.13;3.88;;;17.10;99.90;;;;;;8260000;28;20046;-72
2021/08/16 01:18:59;;;;;;;18.95;4.20;;;17.10;99.90;;;;;;8258765;28;20062;-72
2021/08/16 01:23:01;;;;;;;13.23;3.30;;;17.10;99.90;;;;;;8276335;28;20050;-72
2021/08/16 01:27:07;;;;;;;16.55;3.70;;;17.10;99.90;;;;;;8267932;28;20046;-72
2021/08/16 01:31:09;;;;;;;16.25;3.95;;;17.20;99.90;;;;;;8261633;28;20109;-72
2021/08/16 01:35:11;;;;;;;15.40;3.08;;;17.10;99.90;;;;;;8261006;28;20054;-72
2021/08/16 01:39:13;;;;;;;18.15;4.05;;;17.20;99.90;;;;;;8256241;28;20051;-72
2021/08/16 01:43:14;;;;;;;14.77;3.13;;;17.20;99.90;;;;;;8260052;28;20058;-72
2021/08/16 01:47:16;;;;;;;16.80;3.22;;;17.20;99.90;;;;;;8260591;28;20077;-72
2021/08/16 01:51:18;;;;;;;11.10;2.97;;;17.20;99.90;;;;;;8262029;28;20059;-72
2021/08/16 01:55:20;;;;;;;14.52;3.40;;;17.10;99.90;;;;;;8272958;28;20054;-72
2021/08/16 01:59:22;;;;;;;11.07;3.63;;;17.10;99.90;;;;;;8261185;28;20051;-72
2021/08/16 02:03:23;;;;;;;13.10;3.05;;;17.10;99.90;;;;;;8259269;28;20093;-72
2021/08/16 02:07:25;;;;;;;9.65;2.78;;;17.10;99.90;;;;;;8273197;28;20061;-72
2021/08/16 02:11:27;;;;;;;15.52;3.63;;;17.10;99.90;;;;;;8262641;28;20045;-72
2021/08/16 02:15:28;;;;;;;12.65;3.45;;;17.20;99.90;;;;;;8274644;28;20061;-72
2021/08/16 02:19:30;;;;;;;14.32;3.53;;;17.20;99.90;;;;;;8257729;28;20061;-72
2021/08/16 02:23:32;;;;;;;18.58;3.55;;;17.20;99.90;;;;;;8258118;28;20081;-72
2021/08/16 02:27:35;;;;;;;11.55;3.05;;;17.20;99.90;;;;;;8259718;28;20552;-72
2021/08/16 02:31:36;;;;;;;22.25;3.80;;;17.20;99.90;;;;;;8261548;28;20054;-71
2021/08/16 02:35:39;;;;;;;14.18;3.67;;;17.20;99.90;;;;;;8258455;28;20062;-72
2021/08/16 02:39:41;;;;;;;15.32;3.85;;;17.20;99.90;;;;;;8264181;28;20053;-72
2021/08/16 02:43:43;;;;;;;12.38;2.97;;;17.30;99.90;;;;;;8258140;28;20470;-71
2021/08/16 02:47:45;;;;;;;16.55;3.30;;;17.30;99.90;;;;;;8260725;28;20051;-72
2021/08/16 02:51:46;;;;;;;12.80;3.40;;;17.30;99.90;;;;;;8261167;28;20050;-72
2021/08/16 02:55:48;;;;;;;13.07;2.90;;;17.40;99.90;;;;;;8256280;28;20062;-72
2021/08/16 02:59:50;;;;;;;14.75;3.45;;;17.30;99.90;;;;;;8259525;28;20046;-72
2021/08/16 03:03:51;;;;;;;16.83;3.50;;;17.30;99.90;;;;;;8256261;28;20046;-72
2021/08/16 03:07:53;;;;;;;11.48;3.05;;;17.30;99.90;;;;;;8254090;28;20411;-71
2021/08/16 03:11:57;;;;;;;19.13;4.05;;;17.40;99.90;;;;;;8274593;28;20694;-72
2021/08/16 03:15:59;;;;;;;12.38;4.13;;;17.30;99.90;;;;;;8252425;28;20054;-72
2021/08/16 03:20:01;;;;;;;14.65;3.88;;;17.30;99.90;;;;;;8254589;28;20470;-72
2021/08/16 03:24:02;;;;;;;11.23;2.85;;;17.30;99.90;;;;;;8254642;28;20050;-72
2021/08/16 03:28:04;;;;;;;13.25;3.70;;;17.30;99.90;;;;;;8272063;28;20050;-72
2021/08/16 03:32:07;;;;;;;18.45;4.07;;;17.30;99.90;;;;;;8259459;28;20375;-72
2021/08/16 03:36:08;;;;;;;14.45;3.13;;;17.30;99.90;;;;;;8269639;28;20564;-72
2021/08/16 03:40:11;;;;;;;11.00;3.15;;;17.30;99.90;;;;;;8254028;28;20498;-73
2021/08/16 03:44:13;;;;;;;8.32;2.60;;;17.30;99.90;;;;;;8256432;28;20064;-72
2021/08/16 03:48:15;;;;;;;15.63;3.20;;;17.30;99.90;;;;;;8257525;28;20367;-72
2021/08/16 03:52:17;;;;;;;11.85;3.17;;;17.30;99.90;;;;;;8257508;28;20410;-72
2021/08/16 03:56:19;;;;;;;14.07;3.63;;;17.20;99.90;;;;;;8256582;28;20416;-72
2021/08/16 04:00:21;;;;;;;18.15;4.15;;;17.20;99.90;;;;;;8257871;28;20058;-72
2021/08/16 04:04:23;;;;;;;9.25;3.00;;;17.20;99.90;;;;;;8255788;28;20051;-72
2021/08/16 04:08:24;;;;;;;13.77;3.40;;;17.20;99.90;;;;;;8257015;28;20627;-72
2021/08/16 04:12:26;;;;;;;11.38;3.67;;;17.20;99.90;;;;;;8257736;28;20065;-72
2021/08/16 04:16:28;;;;;;;9.32;3.10;;;17.10;99.90;;;;;;8255714;28;20054;-72
2021/08/16 04:20:30;;;;;;;13.98;3.60;;;17.10;99.90;;;;;;8248389;28;20100;-72
2021/08/16 04:24:31;;;;;;;13.18;4.15;;;17.10;99.90;;;;;;8255827;28;20050;-72
2021/08/16 04:28:33;;;;;;;15.50;3.20;;;17.10;99.90;;;;;;8264660;28;22121;-72
2021/08/16 04:32:35;;;;;;;10.02;3.50;;;17.20;99.90;;;;;;8263886;28;20521;-72
2021/08/16 04:36:36;;;;;;;13.63;3.63;;;17.20;99.90;;;;;;8264862;28;20061;-72
2021/08/16 04:40:38;;;;;;;10.32;2.80;;;17.20;99.90;;;;;;8263206;28;20401;-72
2021/08/16 04:44:40;;;;;;;11.32;3.17;;;17.20;99.90;;;;;;8261771;28;20100;-72
2021/08/16 04:48:42;;;;;;;20.23;4.57;;;17.20;99.90;;;;;;8277962;28;20548;-72
2021/08/16 04:52:43;;;;;;;11.98;3.40;;;17.20;99.90;;;;;;8263431;28;20043;-72
2021/08/16 04:56:45;;;;;;;20.30;4.82;;;17.20;99.90;;;;;;8261238;28;20050;-72
2021/08/16 05:00:47;;;;;;;15.30;4.40;;;17.20;99.90;;;;;;8277676;28;20418;-72
2021/08/16 05:04:53;;;;;;;12.88;3.80;;;17.20;99.90;;;;;;8252238;28;20501;-71
2021/08/16 05:08:56;;;;;;;14.68;3.83;;;17.20;99.90;;;;;;8262072;28;20054;-72
2021/08/16 05:13:00;;;;;;;16.60;5.05;;;17.10;99.90;;;;;;8257688;28;20091;-72
2021/08/16 05:17:02;;;;;;;13.73;4.75;;;17.10;99.90;;;;;;8268549;28;20073;-72
2021/08/16 05:21:03;;;;;;;15.75;5.10;;;17.00;99.90;;;;;;8257284;28;20050;-72
2021/08/16 05:25:08;;;;;;;17.00;5.43;;;17.10;99.90;;;;;;8257048;28;20054;-72
2021/08/16 05:29:09;;;;;;;12.77;4.93;;;17.00;99.90;;;;;;8258045;28;20058;-72
2021/08/16 05:33:16;;;;;;;11.25;4.78;;;17.00;99.90;;;;;;8258537;28;20451;-71
2021/08/16 05:37:17;;;;;;;10.60;4.72;;;17.00;99.90;;;;;;8271033;28;20046;-72
2021/08/16 05:41:19;;;;;;;17.17;6.32;;;17.00;99.90;;;;;;8262218;28;20057;-72
2021/08/16 05:45:21;;;;;;;17.00;6.35;;;17.00;99.90;;;;;;8256867;28;20418;-72
2021/08/16 05:49:22;;;;;;;17.33;7.57;;;17.00;99.90;;;;;;8260531;28;20057;-72
2021/08/16 05:53:24;;;;;;;16.65;6.15;;;16.90;99.90;;;;;;8258170;28;20058;-72
2021/08/16 05:57:27;;;;;;;14.80;6.40;;;16.90;99.90;;;;;;8258872;28;20327;-72
2021/08/16 06:01:29;;;;;;;13.50;5.32;;;16.90;99.90;;;;;;8260241;28;20065;-71
2021/08/16 06:05:31;;;;;;;11.70;4.63;;;16.90;99.90;;;;;;8252627;28;20058;-72
2021/08/16 06:09:32;;;;;;;8.27;2.97;;;16.90;99.90;;;;;;8257953;28;20058;-72
2021/08/16 06:13:34;;;;;;;5.22;2.20;;;16.80;99.90;;;;;;8255412;28;20164;-72
2021/08/16 06:17:37;;;;;;;5.72;2.65;;;16.80;99.90;;;;;;8259775;28;20046;-72
2021/08/16 06:21:42;;;;;;;4.57;2.28;;;16.80;99.90;;;;;;8258360;28;20053;-71
2021/08/16 06:25:44;;;;;;;6.43;2.35;;;16.80;99.90;;;;;;8269276;28;21044;-72
2021/08/16 06:29:46;;;;;;;4.07;2.10;;;16.70;99.90;;;;;;8256198;28;20050;-72
2021/08/16 06:33:47;;;;;;;6.63;2.47;;;16.70;99.90;;;;;;8250971;28;20065;-72
2021/08/16 06:37:49;;;;;;;5.07;2.40;;;16.70;99.90;;;;;;8264412;28;20043;-72
2021/08/16 06:41:53;;;;;;;8.13;3.35;;;16.70;99.90;;;;;;8258298;28;20461;-73
2021/08/16 06:45:56;;;;;;;7.88;3.10;;;16.70;99.90;;;;;;8251090;28;20081;-73
2021/08/16 06:49:58;;;;;;;7.43;2.75;;;16.70;99.90;;;;;;8252148;28;20457;-73
2021/08/16 06:54:00;;;;;;;8.18;3.30;;;16.70;99.90;;;;;;8253227;28;20046;-73
2021/08/16 06:58:02;;;;;;;8.27;3.22;;;16.70;99.90;;;;;;8251668;28;20038;-73
2021/08/16 07:02:04;;;;;;;9.10;3.67;;;16.70;99.90;;;;;;8254839;28;20055;-73
2021/08/16 07:06:06;;;;;;;7.38;3.60;;;16.70;99.90;;;;;;8246902;28;20047;-73
2021/08/16 07:10:08;;;;;;;10.45;3.50;;;16.70;99.90;;;;;;8251618;28;20061;-72
2021/08/16 07:14:10;;;;;;;14.27;3.75;;;16.70;99.90;;;;;;8268526;28;20057;-73
2021/08/16 07:18:12;;;;;;;12.80;3.28;;;16.70;99.90;;;;;;8251954;28;20058;-73
2021/08/16 07:22:13;;;;;;;7.50;3.40;;;16.70;99.90;;;;;;8258417;28;20090;-73
2021/08/16 07:26:15;;;;;;;11.10;4.03;;;16.70;99.90;;;;;;8257591;28;20105;-72
2021/08/16 07:30:18;;;;;;;11.55;3.30;;;16.70;99.90;;;;;;8256840;28;20089;-73
2021/08/16 07:34:21;;;;;;;7.20;3.30;;;16.70;99.90;;;;;;8254974;28;20062;-73
2021/08/16 07:38:25;;;;;;;7.13;3.40;;;16.60;99.90;;;;;;8254880;28;20101;-72
2021/08/16 07:42:27;;;;;;;10.90;4.15;;;16.50;99.90;;;;;;8256152;28;20046;-72
2021/08/16 07:46:28;;;;;;;9.00;3.22;;;16.40;99.90;;;;;;8273260;28;20038;-72
2021/08/16 07:50:31;;;;;;;9.77;3.53;;;16.30;99.90;;;;;;8258337;28;20479;-72
2021/08/16 07:54:33;;;;;;;9.65;3.25;;;16.30;99.90;;;;;;8257231;28;20050;-72
2021/08/16 07:58:35;;;;;;;9.82;3.88;;;16.30;99.90;;;;;;8256355;28;20511;-73
2021/08/16 08:02:44;;;;;;;6.13;2.88;;;16.20;99.90;;;;;;8253715;28;20062;-73
2021/08/16 08:06:46;;;;;;;10.65;3.70;;;16.20;99.90;;;;;;8255004;28;20530;-72
2021/08/16 08:10:48;;;;;;;8.85;3.35;;;16.20;99.90;;;;;;8255301;28;20091;-72
2021/08/16 08:14:49;;;;;;;8.85;3.65;;;16.20;99.90;;;;;;8254247;28;20042;-72
2021/08/16 08:18:51;;;;;;;6.53;3.35;;;16.30;99.90;;;;;;8252931;28;20057;-72
2021/08/16 08:22:53;;;;;;;8.10;3.70;;;16.40;99.90;;;;;;8251934;28;20051;-72
2021/08/16 08:26:55;;;;;;;11.85;3.70;;;16.50;99.90;;;;;;8257816;28;20043;-72
2021/08/16 08:30:57;;;;;;;10.02;3.80;;;16.50;99.90;;;;;;8252953;28;20062;-73
2021/08/16 08:34:58;;;;;;;9.35;3.90;;;16.60;99.90;;;;;;8253907;28;20693;-72
2021/08/16 08:39:00;;;;;;;9.18;3.80;;;16.70;99.90;;;;;;8257481;28;20576;-73
2021/08/16 08:43:02;;;;;;;9.63;3.50;;;16.70;99.90;;;;;;8269165;28;20058;-72
2021/08/16 08:47:04;;;;;;;11.48;3.58;;;16.80;99.90;;;;;;8258078;28;20050;-72
2021/08/16 08:51:07;;;;;;;6.25;2.83;;;16.80;99.90;;;;;;8258964;28;20057;-72
2021/08/16 08:55:10;;;;;;;9.57;3.20;;;16.80;99.90;;;;;;8253661;28;20057;-72
2021/08/16 08:59:32;;;;;;;8.95;2.95;;;16.80;99.90;;;;;;8255788;28;20398;-72
2021/08/16 09:03:33;;;;;;;10.55;3.90;;;16.80;99.90;;;;;;8256575;28;20054;-72
2021/08/16 09:07:39;;;;;;;9.38;3.65;;;16.80;99.90;;;;;;8257091;28;20137;-72
2021/08/16 09:11:48;;;;;;;8.43;3.20;;;16.80;99.90;;;;;;8262344;28;20050;-71
2021/08/16 09:15:52;;;;;;;9.73;3.42;;;16.90;99.90;;;;;;8261320;28;20054;-72
2021/08/16 09:19:53;;;;;;;10.30;3.80;;;16.90;99.90;;;;;;8261709;28;20077;-72
2021/08/16 09:23:57;;;;;;;11.38;3.75;;;16.90;99.90;;;;;;8257672;28;20054;-72
2021/08/16 09:27:59;;;;;;;13.65;4.32;;;16.90;99.90;;;;;;8260316;28;20051;-72
2021/08/16 09:32:03;;;;;;;11.88;5.40;;;16.90;99.90;;;;;;8264192;28;20054;-72
2021/08/16 09:36:05;;;;;;;13.13;5.03;;;16.90;99.90;;;;;;8257013;28;20413;-73
2021/08/16 09:40:15;;;;;;;12.18;4.72;;;17.00;99.90;;;;;;8273967;28;20576;-70
2021/08/16 09:44:16;;;;;;;9.98;4.78;;;17.00;99.90;;;;;;8260162;28;20050;-70
2021/08/16 09:48:21;;;;;;;12.43;4.93;;;17.10;99.90;;;;;;8260483;28;20640;-70
2021/08/16 09:52:32;;;;;;;13.65;5.28;;;17.20;99.90;;;;;;8260530;28;20490;-70
2021/08/16 09:56:34;;;;;;;10.10;4.97;;;17.20;99.90;;;;;;8259528;28;20052;-70
2021/08/16 10:00:37;;;;;;;11.65;4.97;;;17.20;99.90;;;;;;8259869;28;20061;-71
2021/08/16 10:04:40;;;;;;;13.50;4.82;;;17.20;99.90;;;;;;8261054;28;20454;-69
2021/08/16 10:08:55;;;;;;;12.32;5.35;;;17.30;99.90;;;;;;8259322;28;20065;-70
2021/08/16 10:12:58;;;;;;;14.45;5.63;;;17.40;99.90;;;;;;8255522;28;20057;-70
2021/08/16 10:17:01;;;;;;;11.02;4.75;;;17.50;99.90;;;;;;8256829;28;20109;-69
2021/08/16 10:21:03;;;;;;;12.55;5.05;;;17.70;99.90;;;;;;8258351;28;20047;-70
2021/08/16 10:25:23;;;;;;;10.85;4.55;;;17.80;99.90;;;;;;8258834;28;20074;-70
2021/08/16 10:29:28;;;;;;;8.80;3.40;;;17.80;99.90;;;;;;8259357;28;20100;-70
2021/08/16 10:33:29;;;;;;;9.73;3.50;;;17.70;99.90;;;;;;8274845;28;20513;-70
2021/08/16 10:37:37;;;;;;;12.52;4.22;;;17.70;99.90;;;;;;8259986;28;20054;-69
2021/08/16 10:41:42;;;;;;;9.65;3.72;;;17.70;99.90;;;;;;8260598;28;20039;-70
2021/08/16 10:45:47;;;;;;;10.23;3.30;;;17.80;99.90;;;;;;8259112;28;20050;-70
2021/08/16 10:49:49;;;;;;;6.47;2.92;;;17.80;99.90;;;;;;8260188;28;20087;-70
2021/08/16 10:53:53;;;;;;;9.23;3.17;;;17.80;99.90;;;;;;8257510;28;20042;-70
2021/08/16 10:57:54;;;;;;;7.85;3.00;;;17.80;99.90;;;;;;8258654;28;20050;-70
2021/08/16 11:01:57;;;;;;;7.32;3.13;;;17.80;99.90;;;;;;8262158;28;20047;-70
2021/08/16 11:06:06;;;;;;;6.22;2.70;;;17.80;99.90;;;;;;8254053;28;20050;-70
2021/08/16 11:10:10;;;;;;;7.78;2.83;;;17.80;99.90;;;;;;8258705;28;20065;-70
2021/08/16 11:14:12;;;;;;;7.38;2.72;;;17.70;99.90;;;;;;8258577;28;20065;-70
2021/08/16 11:18:19;;;;;;;8.90;3.65;;;17.60;99.90;;;;;;8256830;28;20053;-70
2021/08/16 11:22:21;;;;;;;7.65;3.33;;;17.50;99.90;;;;;;8251979;28;20474;-70
2021/08/16 11:26:22;;;;;;;11.23;4.03;;;17.50;99.90;;;;;;8259385;28;20486;-70
2021/08/16 11:30:24;;;;;;;7.93;2.85;;;17.40;99.90;;;;;;8273832;28;20049;-70
2021/08/16 11:34:31;;;;;;;6.40;2.20;;;17.30;99.90;;;;;;8255768;28;20544;-70
2021/08/16 11:38:33;;;;;;;7.65;2.22;;;17.00;99.90;;;;;;8257122;28;20058;-69
2021/08/16 11:42:38;;;;;;;6.88;2.33;;;16.60;99.90;;;;;;8257038;28;20052;-69
2021/08/16 11:46:40;;;;;;;8.18;2.53;;;16.40;99.90;;;;;;8260100;28;20093;-70
2021/08/16 11:50:43;;;;;;;5.85;2.50;;;16.20;99.90;;;;;;8258249;28;20054;-70
2021/08/16 11:54:44;;;;;;;8.38;2.53;;;16.20;99.90;;;;;;8254984;28;20069;-70
2021/08/16 11:58:46;;;;;;;7.80;2.83;;;16.20;99.90;;;;;;8257743;28;20054;-70
2021/08/16 12:02:48;;;;;;;7.05;2.83;;;16.20;99.90;;;;;;8257333;28;20038;-70
2021/08/16 12:06:53;;;;;;;10.05;3.17;;;16.30;99.90;;;;;;8266949;28;20069;-70
2021/08/16 12:10:55;;;;;;;7.45;3.00;;;16.40;99.90;;;;;;8272271;28;20054;-70
2021/08/16 12:15:00;;;;;;;10.35;2.90;;;16.40;99.90;;;;;;8256490;28;20054;-70
2021/08/16 12:19:04;;;;;;;9.85;2.90;;;16.40;99.90;;;;;;8256095;28;20065;-71
2021/08/16 12:23:07;;;;;;;9.70;2.97;;;16.40;99.90;;;;;;8255786;28;20065;-71
2021/08/16 12:27:11;;;;;;;11.13;3.13;;;16.40;99.90;;;;;;8259665;28;20112;-70
2021/08/16 12:31:14;;;;;;;10.02;2.97;;;16.40;99.90;;;;;;8260362;28;20173;-70
2021/08/16 12:35:21;;;;;;;9.75;3.30;;;16.50;99.90;;;;;;8255116;28;20145;-69
2021/08/16 12:39:32;;;;;;;13.38;3.22;;;16.50;99.90;;;;;;8227125;28;20061;-70
2021/08/16 12:43:40;;;;;;;8.38;3.30;;;16.60;99.90;;;;;;8252854;28;20046;-70
2021/08/16 12:47:42;;;;;;;10.98;2.45;;;16.80;99.90;;;;;;8260474;28;20089;-70
2021/08/16 12:51:44;;;;;;;9.50;2.63;;;16.90;99.90;;;;;;8262684;28;20073;-71
2021/08/16 12:55:46;;;;;;;7.45;2.72;;;17.10;99.90;;;;;;8276825;28;20101;-69
2021/08/16 12:59:49;;;;;;;8.07;2.70;;;17.10;99.90;;;;;;8257604;28;20042;-70
2021/08/16 13:03:52;;;;;;;9.70;2.92;;;17.20;99.90;;;;;;8254814;28;20433;-70
2021/08/16 13:07:54;;;;;;;10.85;2.30;;;17.10;99.90;;;;;;8262215;28;20141;-71
2021/08/16 13:11:57;;;;;;;10.20;2.95;;;17.10;99.90;;;;;;8277518;28;20082;-69
2021/08/16 13:15:59;;;;;;;9.63;2.90;;;17.00;99.90;;;;;;8255332;28;20046;-70
2021/08/16 13:20:01;;;;;;;10.50;3.17;;;17.00;99.90;;;;;;8276549;28;20145;-70
2021/08/16 13:24:04;;;;;;;11.80;2.63;;;17.00;99.90;;;;;;8261744;28;21314;-70
2021/08/16 13:28:06;;;;;;;21.90;3.50;;;16.90;99.90;;;;;;8262171;28;20058;-70
2021/08/16 13:32:09;;;;;;;9.35;2.67;;;16.90;99.90;;;;;;8262377;28;20065;-70
2021/08/16 13:36:11;;;;;;;9.80;2.70;;;16.90;99.90;;;;;;8259627;28;20162;-70
2021/08/16 13:40:13;;;;;;;12.68;2.72;;;16.90;99.90;;;;;;8252915;28;20038;-70
2021/08/16 13:44:15;;;;;;;12.52;3.33;;;17.00;99.90;;;;;;8259734;28;20142;-70
2021/08/16 13:48:17;;;;;;;11.43;3.22;;;17.00;99.90;;;;;;8261900;28;20046;-70
2021/08/16 13:52:19;;;;;;;9.57;2.80;;;17.20;99.90;;;;;;8260043;28;20122;-70
2021/08/16 13:56:21;;;;;;;9.35;3.20;;;17.20;99.90;;;;;;8261201;28;20381;-70
2021/08/16 14:00:24;;;;;;;12.18;3.38;;;17.30;99.90;;;;;;8252796;28;20493;-70
2021/08/16 14:04:26;;;;;;;12.60;3.35;;;17.30;99.90;;;;;;8258276;28;20096;-69
2021/08/16 14:08:28;;;;;;;12.82;3.75;;;17.30;99.90;;;;;;8258519;28;20141;-70
2021/08/16 14:12:32;;;;;;;9.80;2.85;;;17.30;99.90;;;;;;8257965;28;20043;-70
2021/08/16 14:16:33;;;;;;;10.55;2.78;;;17.20;99.90;;;;;;8259779;28;20050;-69
2021/08/16 14:20:36;;;;;;;10.98;2.90;;;17.20;99.90;;;;;;8257108;28;20050;-70
2021/08/16 14:24:37;;;;;;;9.50;2.88;;;17.20;99.90;;;;;;8257605;28;20054;-70
2021/08/16 14:28:39;;;;;;;9.10;2.50;;;17.30;99.90;;;;;;8274832;28;20053;-70
2021/08/16 14:32:41;;;;;;;8.40;2.33;;;17.30;99.90;;;;;;8258789;28;20050;-70
2021/08/16 14:36:42;;;;;;;10.75;2.50;;;17.30;99.90;;;;;;8262452;28;20042;-70
2021/08/16 14:40:44;;;;;;;5.45;1.77;;;17.30;99.90;;;;;;8275235;28;20383;-70
2021/08/16 14:44:46;;;;;;;8.20;2.22;;;17.30;99.90;;;;;;8258169;28;20062;-70
2021/08/16 14:48:48;;;;;;;7.15;1.98;;;17.30;99.90;;;;;;8259222;28;20046;-70
2021/08/16 14:52:50;;;;;;;9.07;2.53;;;17.30;99.90;;;;;;8247018;28;20054;-70
2021/08/16 14:56:51;;;;;;;7.13;2.13;;;17.20;99.90;;;;;;8261531;28;20049;-70
2021/08/16 15:00:55;;;;;;;8.80;2.67;;;17.30;99.90;;;;;;8259400;28;20054;-69
2021/08/16 15:05:00;;;;;;;7.30;2.22;;;17.30;99.90;;;;;;8256978;28;20101;-70
2021/08/16 15:09:02;;;;;;;7.97;2.25;;;17.40;99.90;;;;;;8259033;28;20054;-70
2021/08/16 15:13:05;;;;;;;7.88;2.35;;;17.50;99.90;;;;;;8256296;28;20042;-70
2021/08/16 15:17:07;;;;;;;8.30;2.13;;;17.60;99.90;;;;;;8258412;28;20133;-70
2021/08/16 15:21:09;;;;;;;4.75;1.63;;;17.50;99.90;;;;;;8250377;28;20047;-70
2021/08/16 15:25:15;;;;;;;6.03;2.17;;;17.30;99.90;;;;;;8248383;28;20046;-70
2021/08/16 15:29:29;;;;;;;9.27;2.45;;;17.20;99.90;;;;;;8249712;28;20402;-71
2021/08/16 15:33:30;;;;;;;7.13;2.13;;;17.10;99.90;;;;;;8218272;28;20593;-70
2021/08/16 15:37:33;;;;;;;14.23;2.67;;;17.00;99.90;;;;;;8239552;28;20115;-70
2021/08/16 15:41:37;;;;;;;10.55;2.78;;;17.00;99.90;;;;;;8244309;28;20046;-70
2021/08/16 15:45:39;;;;;;;7.78;2.30;;;17.10;99.90;;;;;;8245463;28;20054;-70
2021/08/16 15:49:41;;;;;;;9.93;2.45;;;17.40;99.90;;;;;;8240467;28;20062;-70
2021/08/16 15:53:43;;;;;;;7.82;2.28;;;17.70;99.90;;;;;;8244779;28;20498;-70
2021/08/16 15:57:44;;;;;;;6.88;2.25;;;18.00;99.90;;;;;;8245620;28;20095;-70
2021/08/16 16:01:46;;;;;;;9.20;1.90;;;18.20;99.90;;;;;;8246369;28;20073;-70
2021/08/16 16:05:48;;;;;;;8.65;2.33;;;18.30;99.90;;;;;;8242525;28;20069;-70
2021/08/16 16:09:50;;;;;;;4.70;1.67;;;18.40;99.90;;;;;;8246138;28;20054;-70
2021/08/16 16:13:52;;;;;;;8.23;2.20;;;18.40;99.90;;;;;;8242255;28;20051;-70
2021/08/16 16:17:54;;;;;;;5.90;2.00;;;18.40;99.60;;;;;;8242720;28;20065;-70
2021/08/16 16:22:04;;;;;;;6.07;1.95;;;18.50;99.90;;;;;;8247143;28;20184;-69
2021/08/16 16:26:26;;;;;;;8.10;1.80;;;18.50;99.90;;;;;;8250301;28;20146;-70
2021/08/16 16:30:30;;;;;;;8.30;2.15;;;18.50;99.90;;;;;;8252403;28;20134;-69
2021/08/16 16:34:32;;;;;;;7.13;1.75;;;18.30;99.90;;;;;;8251051;28;20054;-72
2021/08/16 16:38:34;;;;;;;5.85;2.08;;;18.00;99.80;;;;;;8247781;28;20058;-72
2021/08/16 16:42:36;;;;;;;7.85;1.80;;;18.20;99.90;;;;;;8249528;28;20402;-72
2021/08/16 16:46:42;;;;;;;4.50;1.63;;;18.30;99.90;;;;;;8261790;28;20058;-70
2021/08/16 16:50:44;;;;;;;6.82;1.92;;;18.60;99.90;;;;;;8268097;28;20058;-70
2021/08/16 16:54:46;;;;;;;9.82;1.92;;;18.80;99.60;;;;;;8252596;28;20046;-70
2021/08/16 16:58:50;;;;;;;6.68;1.98;;;19.00;99.90;;;;;;8253189;28;20161;-70
2021/08/16 17:02:51;;;;;;;8.15;2.60;;;19.10;99.50;;;;;;8236003;28;20047;-70
2021/08/16 17:06:53;;;;;;;7.03;2.08;;;19.00;98.80;;;;;;8252982;28;20078;-70
2021/08/16 17:10:55;;;;;;;6.45;2.10;;;18.90;99.40;;;;;;8251591;28;20069;-70
2021/08/16 17:14:59;;;;;;;8.55;2.03;;;18.70;99.20;;;;;;8251500;28;20054;-70
2021/08/16 17:19:00;;;;;;;7.40;2.00;;;18.40;99.10;;;;;;8264290;28;20077;-70
2021/08/16 17:23:03;;;;;;;7.93;2.17;;;18.10;98.80;;;;;;8250690;28;20118;-70
2021/08/16 17:27:05;;;;;;;10.65;2.03;;;17.80;99.10;;;;;;8247288;28;20287;-70
2021/08/16 17:31:09;;;;;;;9.02;2.08;;;17.70;98.90;;;;;;8251408;28;20078;-70
2021/08/16 17:35:11;;;;;;;8.82;2.10;;;17.60;98.80;;;;;;8248316;28;20061;-71
2021/08/16 17:39:13;;;;;;;7.47;2.00;;;17.60;98.70;;;;;;8247552;28;20054;-70
2021/08/16 17:43:14;;;;;;;5.65;1.98;;;17.50;98.70;;;;;;8242882;28;20077;-70
2021/08/16 17:47:16;;;;;;;9.23;2.13;;;17.40;98.60;;;;;;8247500;28;20474;-70
2021/08/16 17:51:18;;;;;;;9.23;2.22;;;17.30;98.30;;;;;;8251290;28;20051;-70
2021/08/16 17:55:20;;;;;;;7.70;1.80;;;17.20;98.70;;;;;;8240797;28;20046;-70
2021/08/16 17:59:22;;;;;;;9.15;1.80;;;17.20;99.20;;;;;;8248988;28;20050;-70
2021/08/16 18:03:25;;;;;;;9.82;2.22;;;17.10;98.70;;;;;;8247329;28;20073;-70
2021/08/16 18:07:27;;;;;;;9.68;1.65;;;17.10;98.90;;;;;;8248956;28;20046;-70
2021/08/16 18:11:29;;;;;;;8.85;2.00;;;17.00;98.80;;;;;;8267545;28;20054;-69
2021/08/16 18:15:31;;;;;;;8.82;2.00;;;16.80;98.20;;;;;;8240523;28;20054;-69
2021/08/16 18:19:33;;;;;;;7.75;1.90;;;16.70;98.50;;;;;;8246681;28;20061;-69
2021/08/16 18:23:37;;;;;;;8.23;1.70;;;16.60;98.70;;;;;;8250260;28;20061;-69
2021/08/16 18:27:38;;;;;;;8.35;2.15;;;16.60;98.80;;;;;;8250251;28;20054;-72
2021/08/16 18:31:41;;;;;;;8.00;1.98;;;16.50;98.80;;;;;;8251202;28;20126;-69
2021/08/16 18:35:43;;;;;;;11.75;2.35;;;16.50;98.90;;;;;;8239753;28;24730;-69
2021/08/16 18:39:45;;;;;;;8.07;1.70;;;16.50;99.00;;;;;;8248484;28;20054;-69
2021/08/16 18:43:47;;;;;;;7.10;2.08;;;16.40;99.10;;;;;;8246069;28;20046;-69
2021/08/16 18:47:49;;;;;;;10.93;1.85;;;16.40;99.20;;;;;;8245352;28;20057;-69
2021/08/16 18:51:51;;;;;;;10.63;2.20;;;16.30;99.20;;;;;;8244153;28;20116;-70
2021/08/16 18:55:54;;;;;;;7.70;1.90;;;16.20;99.30;;;;;;8260206;28;20553;-70
2021/08/16 18:59:55;;;;;;;9.93;1.83;;;16.10;99.20;;;;;;8248659;28;20391;-69
2021/08/16 19:03:59;;;;;;;10.73;2.20;;;16.10;99.30;;;;;;8246284;28;20042;-69
2021/08/16 19:08:01;;;;;;;6.68;1.88;;;15.90;99.30;;;;;;8241887;28;20057;-69
2021/08/16 19:12:07;;;;;;;8.93;2.03;;;15.90;99.40;;;;;;8249805;28;20054;-69
2021/08/16 19:16:09;;;;;;;6.00;2.03;;;15.90;99.30;;;;;;8248277;28;20054;-69
2021/08/16 19:20:11;;;;;;;8.55;2.13;;;15.90;99.70;;;;;;8265999;28;20050;-69
2021/08/16 19:24:13;;;;;;;11.38;2.15;;;15.90;99.70;;;;;;8246755;28;20051;-69
2021/08/16 19:28:15;;;;;;;8.95;2.65;;;15.90;99.90;;;;;;8247074;28;20057;-69
2021/08/16 19:32:17;;;;;;;8.95;2.00;;;15.80;99.90;;;;;;8253195;28;20609;-69
2021/08/16 19:36:23;;;;;;;9.60;2.03;;;15.80;99.90;;;;;;8247946;28;20061;-69
2021/08/16 19:40:25;;;;;;;9.88;1.80;;;15.80;99.90;;;;;;8247810;28;20054;-70
2021/08/16 19:44:27;;;;;;;9.70;2.03;;;15.70;99.90;;;;;;8259944;28;20045;-70
2021/08/16 19:48:28;;;;;;;9.30;2.03;;;15.70;99.90;;;;;;8247874;28;20046;-70
2021/08/16 19:52:30;;;;;;;9.25;2.00;;;15.70;99.90;;;;;;8245410;28;20061;-70
2021/08/16 19:56:33;;;;;;;6.97;2.03;;;15.70;99.90;;;;;;8242803;28;21443;-70
2021/08/16 20:00:34;;;;;;;15.50;3.13;;;15.60;99.90;;;;;;8245170;28;20105;-70
2021/08/16 20:04:36;;;;;;;10.55;2.20;;;15.60;99.90;;;;;;8245020;28;20050;-70
2021/08/16 20:08:39;;;;;;;6.90;2.10;;;15.70;99.90;;;;;;8246157;28;20149;-70
2021/08/16 20:12:42;;;;;;;9.27;2.05;;;15.70;99.90;;;;;;8244117;28;20055;-70
2021/08/16 20:16:47;;;;;;;10.05;2.35;;;15.70;99.90;;;;;;8247213;28;20390;-69
2021/08/16 20:20:49;;;;;;;10.73;2.45;;;15.70;99.90;;;;;;8243606;28;20038;-70
2021/08/16 20:24:51;;;;;;;12.13;1.90;;;15.80;99.90;;;;;;8242700;28;20058;-70
2021/08/16 20:28:53;;;;;;;9.73;2.15;;;15.80;99.90;;;;;;8246905;28;20043;-72
2021/08/16 20:32:54;;;;;;;9.60;1.88;;;15.70;99.90;;;;;;8248077;28;20058;-72
2021/08/16 20:36:56;;;;;;;8.77;2.30;;;15.70;99.90;;;;;;8251116;28;20513;-71
2021/08/16 20:40:58;;;;;;;10.25;2.45;;;15.60;99.90;;;;;;8242856;28;20055;-72
2021/08/16 20:44:59;;;;;;;7.93;1.70;;;15.60;99.90;;;;;;8242406;28;20046;-72
2021/08/16 20:49:02;;;;;;;14.55;2.63;;;15.60;99.90;;;;;;8245384;28;20042;-71
2021/08/16 20:53:04;;;;;;;9.50;1.95;;;15.60;99.90;;;;;;8243955;28;20053;-72
2021/08/16 20:57:06;;;;;;;8.60;2.33;;;15.60;99.90;;;;;;8261639;28;20462;-72